createdAt,value
2022-10-20T00:00:58.530Z,13.23
2022-10-20T00:03:25.907Z,13.21
2022-10-20T00:05:52.949Z,12.96
2022-10-20T00:08:19.683Z,13.02
2022-10-20T00:10:56.060Z,12.85
2022-10-20T00:13:23.598Z,13.01
2022-10-20T00:15:54.129Z,12.96
2022-10-20T00:18:21.241Z,13.12
2022-10-20T00:20:47.939Z,12.75
2022-10-20T00:23:14.875Z,12.88
2022-10-20T00:25:41.551Z,12.90
2022-10-20T00:28:08.188Z,12.84
2022-10-20T00:30:35.229Z,12.82
2022-10-20T00:33:02.976Z,12.80
2022-10-20T00:35:30.190Z,12.80
2022-10-20T00:37:57.203Z,12.73
2022-10-20T00:40:24.284Z,12.82
2022-10-20T00:42:50.934Z,12.77
2022-10-20T00:45:18.914Z,12.56
2022-10-20T00:47:56.456Z,12.55
2022-10-20T00:50:26.318Z,12.65
2022-10-20T00:52:53.477Z,12.66
2022-10-20T00:55:21.516Z,12.53
2022-10-20T00:57:49.582Z,12.42
2022-10-20T01:00:16.613Z,12.05
2022-10-20T01:02:43.521Z,12.09
2022-10-20T01:05:10.524Z,12.02
2022-10-20T01:07:37.519Z,12.17
2022-10-20T01:10:04.931Z,12.35
2022-10-20T01:12:47.345Z,12.25
2022-10-20T01:15:16.889Z,12.01
2022-10-20T01:17:43.865Z,12.12
2022-10-20T01:20:10.528Z,12.22
2022-10-20T01:22:55.913Z,12.16
2022-10-20T01:25:35.181Z,12.03
2022-10-20T01:28:03.090Z,12.05
2022-10-20T01:30:30.565Z,12.01
2022-10-20T01:33:00.465Z,11.96
2022-10-20T01:35:27.184Z,11.93
2022-10-20T01:37:54.345Z,12.07
2022-10-20T01:40:29.418Z,12.02
2022-10-20T01:42:57.079Z,12.01
2022-10-20T01:45:24.349Z,11.90
2022-10-20T01:47:51.504Z,11.69
2022-10-20T01:50:18.466Z,11.78
2022-10-20T01:52:45.146Z,11.61
2022-10-20T01:55:13.712Z,11.64
2022-10-20T01:57:40.663Z,11.71
2022-10-20T02:00:08.290Z,11.80
2022-10-20T02:02:35.524Z,11.68
2022-10-20T02:05:02.601Z,11.64
2022-10-20T02:07:29.736Z,11.86
2022-10-20T02:10:26.299Z,11.75
2022-10-20T02:12:54.245Z,11.73
2022-10-20T02:15:23.688Z,11.48
2022-10-20T02:17:51.769Z,11.57
2022-10-20T02:20:18.487Z,11.50
2022-10-20T02:22:45.452Z,11.49
2022-10-20T02:25:12.627Z,11.10
2022-10-20T02:27:39.883Z,11.45
2022-10-20T02:30:08.109Z,11.38
2022-10-20T02:32:36.064Z,11.31
2022-10-20T02:35:06.657Z,11.50
2022-10-20T02:37:34.232Z,11.39
2022-10-20T02:40:01.440Z,11.38
2022-10-20T02:42:28.093Z,11.11
2022-10-20T02:44:55.794Z,11.27
2022-10-20T02:47:22.508Z,11.17
2022-10-20T02:49:49.175Z,11.28
2022-10-20T02:52:16.180Z,11.13
2022-10-20T02:54:42.861Z,11.35
2022-10-20T02:57:09.589Z,11.13
2022-10-20T02:59:36.533Z,11.30
2022-10-20T03:02:03.300Z,10.93
2022-10-20T03:04:30.040Z,10.63
2022-10-20T03:06:57.202Z,10.75
2022-10-20T03:09:24.027Z,11.04
2022-10-20T03:11:50.837Z,11.00
2022-10-20T03:14:17.791Z,10.96
2022-10-20T03:16:44.484Z,10.89
2022-10-20T03:19:11.930Z,11.03
2022-10-20T03:21:39.070Z,11.00
2022-10-20T03:24:05.906Z,11.12
2022-10-20T03:26:32.566Z,11.10
2022-10-20T03:28:59.486Z,10.84
2022-10-20T03:31:26.390Z,10.98
2022-10-20T03:33:53.082Z,11.00
2022-10-20T03:36:20.023Z,11.01
2022-10-20T03:38:46.652Z,10.92
2022-10-20T03:41:13.380Z,10.71
2022-10-20T03:43:40.317Z,10.86
2022-10-20T03:46:08.328Z,10.66
2022-10-20T03:48:35.525Z,10.95
2022-10-20T03:51:02.811Z,10.93
2022-10-20T03:53:29.639Z,11.03
2022-10-20T03:55:56.292Z,10.92
2022-10-20T03:58:23.394Z,10.78
2022-10-20T04:00:50.112Z,10.78
2022-10-20T04:03:17.074Z,10.69
2022-10-20T04:05:43.706Z,10.78
2022-10-20T04:08:10.457Z,10.85
2022-10-20T04:10:37.478Z,10.75
2022-10-20T04:13:04.402Z,10.69
2022-10-20T04:15:31.230Z,10.79
2022-10-20T04:17:58.479Z,10.52
2022-10-20T04:20:25.264Z,10.55
2022-10-20T04:22:51.915Z,10.53
2022-10-20T04:25:18.917Z,10.62
2022-10-20T04:27:45.637Z,10.60
2022-10-20T04:30:12.333Z,10.46
2022-10-20T04:32:39.306Z,10.50
2022-10-20T04:35:06.147Z,10.08
2022-10-20T04:37:32.773Z,10.41
2022-10-20T04:39:59.864Z,10.24
2022-10-20T04:42:26.533Z,10.29
2022-10-20T04:48:14.078Z,10.30
2022-10-20T04:50:40.991Z,10.23
2022-10-20T04:53:08.062Z,10.27
2022-10-20T04:55:35.186Z,10.31
2022-10-20T04:58:02.807Z,10.41
2022-10-20T05:00:29.662Z,10.26
2022-10-20T05:02:56.381Z,10.23
2022-10-20T05:05:23.391Z,10.30
2022-10-20T05:07:50.019Z,10.19
2022-10-20T05:10:17.879Z,10.27
2022-10-20T05:12:44.815Z,10.17
2022-10-20T05:15:11.514Z,10.08
2022-10-20T05:17:38.301Z,10.05
2022-10-20T05:20:05.575Z,9.91
2022-10-20T06:47:43.197Z,11.12
2022-10-20T06:50:11.119Z,11.35
2022-10-20T06:52:38.087Z,11.52
2022-10-20T06:55:05.266Z,11.59
2022-10-20T06:57:32.629Z,11.83
2022-10-20T06:59:59.337Z,12.24
2022-10-20T07:02:26.117Z,12.67
2022-10-20T07:04:53.501Z,12.96
2022-10-20T07:07:20.271Z,13.15
2022-10-20T07:09:47.176Z,13.33
2022-10-20T07:12:14.253Z,13.44
2022-10-20T07:14:41.010Z,13.66
2022-10-20T07:17:07.909Z,13.89
2022-10-20T07:19:34.952Z,14.11
2022-10-20T07:22:01.828Z,14.24
2022-10-20T07:24:29.631Z,14.12
2022-10-20T07:27:01.739Z,14.60
2022-10-20T07:29:36.445Z,14.76
2022-10-20T07:32:07.275Z,14.43
2022-10-20T07:34:35.069Z,14.81
2022-10-20T07:37:01.870Z,15.26
2022-10-20T07:39:33.314Z,15.35
2022-10-20T07:42:00.036Z,15.38
2022-10-20T07:44:26.933Z,15.72
2022-10-20T07:46:55.331Z,15.91
2022-10-20T07:52:09.369Z,16.42
2022-10-20T07:54:36.339Z,16.32
2022-10-20T07:57:03.105Z,15.93
2022-10-20T07:59:30.890Z,16.59
2022-10-20T08:01:59.752Z,16.76
2022-10-20T08:04:31.781Z,17.18
2022-10-20T08:07:00.097Z,17.35
2022-10-20T08:09:26.839Z,17.51
2022-10-20T08:11:56.037Z,17.47
2022-10-20T08:14:26.599Z,17.28
2022-10-20T08:17:02.807Z,17.32
2022-10-20T08:22:20.174Z,17.43
2022-10-20T08:24:47.094Z,17.13
2022-10-20T08:27:14.207Z,17.66
2022-10-20T08:29:41.267Z,17.89
2022-10-20T08:32:07.977Z,18.10
2022-10-20T08:34:34.819Z,17.63
2022-10-20T08:37:01.842Z,17.88
2022-10-20T08:39:28.531Z,18.24
2022-10-20T08:42:07.391Z,18.52
2022-10-20T08:44:35.404Z,18.19
2022-10-20T08:47:02.434Z,18.34
2022-10-20T08:49:29.865Z,18.72
2022-10-20T08:51:56.870Z,18.59
2022-10-20T08:54:23.779Z,18.23
2022-10-20T08:56:51.147Z,18.65
2022-10-20T08:59:23.513Z,18.05
2022-10-20T09:01:50.370Z,18.05
2022-10-20T09:04:19.097Z,17.80
2022-10-20T09:06:47.466Z,17.82
2022-10-20T09:12:40.557Z,18.00
2022-10-20T09:15:09.425Z,17.80
2022-10-20T09:17:36.255Z,17.77
2022-10-20T09:20:03.888Z,18.17
2022-10-20T09:22:35.553Z,18.21
2022-10-20T09:25:02.719Z,18.73
2022-10-20T09:27:29.412Z,18.47
2022-10-20T09:29:56.345Z,18.77
2022-10-20T09:32:45.963Z,18.79
2022-10-20T09:35:24.971Z,18.29
2022-10-20T09:37:57.286Z,18.44
2022-10-20T09:40:26.170Z,18.25
2022-10-20T09:42:54.162Z,18.67
2022-10-20T09:45:28.492Z,18.35
2022-10-20T09:47:56.754Z,18.50
2022-10-20T09:50:25.622Z,18.71
2022-10-20T09:52:52.293Z,18.90
2022-10-20T09:55:22.714Z,18.37
2022-10-20T09:57:49.398Z,18.49
2022-10-20T10:00:36.473Z,18.79
2022-10-20T10:03:21.520Z,18.55
2022-10-20T10:05:54.971Z,18.50
2022-10-20T10:08:22.505Z,18.64
2022-10-20T10:11:05.749Z,18.72
2022-10-20T10:13:37.806Z,18.72
2022-10-20T10:16:05.696Z,18.66
2022-10-20T10:18:32.770Z,19.03
2022-10-20T10:21:00.835Z,19.04
2022-10-20T10:23:28.448Z,18.64
2022-10-20T10:25:59.165Z,19.21
2022-10-20T10:28:30.845Z,19.07
2022-10-20T10:31:24.106Z,19.14
2022-10-20T10:33:52.626Z,18.76
2022-10-20T10:36:36.011Z,18.98
2022-10-20T10:39:03.179Z,19.45
2022-10-20T10:41:41.671Z,19.44
2022-10-20T10:44:11.645Z,19.39
2022-10-20T10:46:57.674Z,18.49
2022-10-20T10:49:39.969Z,18.51
2022-10-20T10:52:17.121Z,18.80
2022-10-20T10:54:44.158Z,18.57
2022-10-20T10:57:31.647Z,18.43
2022-10-20T11:00:00.584Z,19.13
2022-10-20T11:02:34.716Z,18.47
2022-10-20T11:05:04.865Z,18.98
2022-10-20T11:07:34.878Z,19.24
2022-10-20T11:10:08.382Z,18.61
2022-10-20T11:12:42.616Z,18.84
2022-10-20T11:15:24.814Z,18.95
2022-10-20T11:18:04.467Z,19.05
2022-10-20T11:20:46.498Z,18.96
2022-10-20T11:26:12.459Z,18.57
2022-10-20T11:28:46.621Z,18.47
2022-10-20T11:31:21.513Z,18.86
2022-10-20T11:33:51.992Z,19.36
2022-10-20T11:36:19.123Z,19.55
2022-10-20T11:38:50.091Z,19.14
2022-10-20T11:41:23.783Z,19.05
2022-10-20T11:43:51.028Z,19.36
2022-10-20T11:46:20.112Z,19.51
2022-10-20T11:48:49.857Z,18.88
2022-10-20T11:51:20.067Z,18.33
2022-10-20T11:53:53.271Z,18.72
2022-10-20T11:56:26.332Z,18.61
2022-10-20T11:59:02.629Z,19.16
2022-10-20T12:01:35.838Z,18.47
2022-10-20T12:04:02.914Z,19.52
2022-10-20T12:06:33.061Z,19.46
2022-10-20T12:09:15.029Z,18.53
2022-10-20T12:11:46.391Z,18.74
2022-10-20T12:14:19.156Z,18.46
2022-10-20T12:16:52.456Z,18.75
2022-10-20T12:19:22.942Z,19.31
2022-10-20T12:21:58.063Z,19.34
2022-10-20T12:24:43.526Z,19.30
2022-10-20T12:27:12.735Z,18.80
2022-10-20T12:29:41.286Z,18.91
2022-10-20T12:32:26.346Z,18.08
2022-10-20T12:35:00.899Z,18.53
2022-10-20T12:37:31.206Z,18.49
2022-10-20T12:40:18.223Z,18.95
2022-10-20T12:42:51.412Z,18.68
2022-10-20T12:45:23.519Z,18.13
2022-10-20T12:47:59.222Z,18.37
2022-10-20T12:50:42.490Z,18.79
2022-10-20T12:53:29.405Z,19.13
2022-10-20T12:56:11.307Z,19.14
2022-10-20T12:58:38.635Z,19.55
2022-10-20T13:01:08.152Z,18.56
2022-10-20T13:03:36.276Z,18.76
2022-10-20T13:06:24.043Z,18.16
2022-10-20T13:09:08.207Z,18.73
2022-10-20T13:11:47.759Z,18.08
2022-10-20T13:14:27.101Z,18.10
2022-10-20T13:17:01.950Z,17.78
2022-10-20T13:20:01.704Z,18.05
2022-10-20T13:22:39.898Z,18.28
2022-10-20T13:25:12.080Z,18.59
2022-10-20T13:27:39.049Z,18.61
2022-10-20T13:30:07.122Z,18.89
2022-10-20T13:32:43.461Z,19.02
2022-10-20T13:35:31.265Z,19.20
2022-10-20T13:38:06.618Z,19.29
2022-10-20T13:40:50.882Z,19.18
2022-10-20T13:43:17.581Z,19.34
2022-10-20T13:45:47.616Z,18.44
2022-10-20T13:48:20.092Z,18.71
2022-10-20T13:50:53.723Z,18.66
2022-10-20T13:53:25.929Z,18.76
2022-10-20T13:55:52.875Z,18.73
2022-10-20T13:58:22.860Z,18.72
2022-10-20T14:00:56.597Z,18.50
2022-10-20T14:03:23.541Z,18.35
2022-10-20T14:05:50.223Z,18.37
2022-10-20T14:08:21.209Z,18.19
2022-10-20T14:11:04.594Z,18.36
2022-10-20T14:13:31.736Z,18.47
2022-10-20T14:15:59.333Z,18.55
2022-10-20T14:18:27.377Z,18.73
2022-10-20T14:20:55.100Z,18.81
2022-10-20T14:23:22.675Z,18.30
2022-10-20T14:25:50.154Z,18.46
2022-10-20T14:28:18.571Z,18.45
2022-10-20T14:30:47.211Z,18.26
2022-10-20T14:33:17.170Z,18.59
2022-10-20T14:35:44.306Z,18.67
2022-10-20T14:38:40.678Z,18.89
2022-10-20T14:41:07.409Z,18.47
2022-10-20T14:43:43.802Z,18.44
2022-10-20T14:46:11.726Z,18.62
2022-10-20T14:48:41.611Z,18.56
2022-10-20T14:51:27.601Z,18.59
2022-10-20T14:54:13.536Z,18.47
2022-10-20T14:56:44.489Z,18.53
2022-10-20T14:59:15.077Z,18.53
2022-10-20T15:01:51.644Z,18.52
2022-10-20T15:04:27.123Z,18.40
2022-10-20T15:07:03.099Z,18.45
2022-10-20T15:09:42.442Z,18.47
2022-10-20T15:12:16.739Z,18.36
2022-10-20T15:14:44.573Z,18.37
2022-10-20T15:17:50.162Z,18.33
2022-10-20T15:20:30.932Z,18.01
2022-10-20T15:22:58.722Z,18.22
2022-10-20T15:25:28.037Z,18.21
2022-10-20T15:27:57.990Z,18.12
2022-10-20T15:30:25.420Z,18.00
2022-10-20T15:32:52.452Z,17.88
2022-10-20T15:35:20.267Z,17.89
2022-10-20T15:37:51.676Z,17.82
2022-10-20T15:40:18.781Z,17.71
2022-10-20T15:42:45.522Z,17.63
2022-10-20T15:45:19.295Z,17.51
2022-10-20T15:47:46.226Z,17.46
2022-10-20T15:50:13.631Z,17.30
2022-10-20T15:52:40.337Z,17.23
2022-10-20T15:55:22.392Z,17.14
2022-10-20T15:57:52.972Z,16.85
2022-10-20T16:00:21.490Z,16.63
2022-10-20T16:02:49.392Z,16.68
2022-10-20T16:05:17.724Z,16.48
2022-10-20T16:07:44.457Z,16.38
2022-10-20T16:10:11.754Z,16.45
2022-10-20T16:12:39.076Z,16.19
2022-10-20T16:15:06.195Z,16.11
2022-10-20T16:17:33.287Z,16.00
2022-10-20T16:19:59.955Z,16.09
2022-10-20T16:22:26.602Z,15.96
2022-10-20T16:24:53.607Z,16.03
2022-10-20T16:27:20.588Z,15.85
2022-10-20T16:29:49.727Z,15.64
2022-10-20T16:32:16.879Z,15.64
2022-10-20T16:34:43.837Z,15.59
2022-10-20T16:37:10.885Z,15.38
2022-10-20T16:39:37.970Z,15.17
2022-10-20T16:42:04.718Z,15.10
2022-10-20T16:44:32.323Z,15.14
2022-10-20T16:46:59.720Z,14.97
2022-10-20T16:49:26.980Z,14.96
2022-10-20T16:51:54.276Z,14.76
2022-10-20T16:54:21.382Z,14.74
2022-10-20T16:56:49.029Z,14.61
2022-10-20T16:59:15.882Z,14.65
2022-10-20T17:01:43.475Z,14.46
2022-10-20T17:04:11.229Z,14.33
2022-10-20T17:06:39.484Z,14.21
2022-10-20T17:09:07.470Z,14.14
2022-10-20T17:11:34.785Z,14.33
2022-10-20T17:14:02.296Z,14.15
2022-10-20T17:16:31.593Z,14.06
2022-10-20T17:18:59.393Z,14.17
2022-10-20T17:21:26.613Z,14.13
2022-10-20T17:23:53.919Z,14.06
2022-10-20T17:26:22.266Z,13.70
2022-10-20T17:28:49.210Z,13.65
2022-10-20T17:33:51.592Z,13.54
2022-10-20T17:36:20.267Z,13.47
2022-10-20T17:38:48.470Z,13.49
2022-10-20T17:41:15.975Z,13.30
2022-10-20T17:43:48.823Z,13.36
2022-10-20T17:46:16.510Z,13.47
2022-10-20T17:48:44.060Z,13.22
2022-10-20T17:51:15.378Z,13.26
2022-10-20T17:53:44.234Z,13.32
2022-10-20T17:56:21.682Z,13.45
2022-10-20T17:58:49.289Z,13.46
2022-10-20T18:01:24.057Z,13.48
2022-10-20T18:04:00.466Z,13.49
2022-10-20T18:06:34.034Z,13.27
2022-10-20T18:09:18.454Z,13.36
2022-10-20T18:11:48.131Z,13.07
2022-10-20T18:14:15.512Z,13.10
2022-10-20T18:16:43.447Z,12.96
2022-10-20T18:19:13.225Z,13.11
2022-10-20T18:21:40.406Z,12.98
2022-10-20T18:24:08.013Z,13.06
2022-10-20T18:26:35.756Z,13.11
2022-10-20T18:29:03.035Z,12.82
2022-10-20T18:31:31.102Z,12.65
2022-10-20T18:34:02.619Z,12.65
2022-10-20T18:36:34.190Z,12.67
2022-10-20T18:39:01.902Z,12.37
2022-10-20T18:41:30.049Z,12.54
2022-10-20T18:43:58.648Z,12.50
2022-10-20T18:46:26.748Z,12.39
2022-10-20T18:48:53.927Z,12.55
2022-10-20T18:51:21.236Z,12.42
2022-10-20T18:53:52.084Z,12.35
2022-10-20T18:56:19.885Z,12.24
2022-10-20T18:58:51.683Z,12.01
2022-10-20T19:01:19.897Z,12.22
2022-10-20T19:03:48.267Z,12.10
2022-10-20T19:06:16.706Z,11.99
2022-10-20T19:08:44.166Z,12.15
2022-10-20T19:11:12.111Z,12.18
2022-10-20T19:13:39.376Z,12.16
2022-10-20T19:16:11.089Z,12.07
2022-10-20T19:18:40.950Z,11.93
2022-10-20T19:21:08.610Z,12.05
2022-10-20T19:23:37.751Z,12.03
2022-10-20T19:26:06.119Z,11.83
2022-10-20T19:28:34.736Z,11.79
2022-10-20T19:31:03.243Z,11.78
2022-10-20T19:34:13.971Z,11.89
2022-10-20T19:36:41.527Z,11.74
2022-10-20T19:39:10.244Z,11.84
2022-10-20T19:41:38.658Z,11.89
2022-10-20T19:44:05.548Z,11.84
2022-10-20T19:46:33.292Z,11.61
2022-10-20T19:49:00.438Z,11.57
2022-10-20T19:51:27.704Z,11.54
2022-10-20T19:53:55.376Z,11.43
2022-10-20T19:56:22.581Z,11.47
2022-10-20T19:58:49.329Z,11.39
2022-10-20T20:01:16.973Z,11.47
2022-10-20T20:03:44.619Z,11.12
2022-10-20T20:06:16.831Z,11.12
2022-10-20T20:08:45.381Z,11.38
2022-10-20T20:11:21.399Z,11.36
2022-10-20T20:13:48.856Z,11.01
2022-10-20T20:16:16.457Z,11.21
2022-10-20T20:18:45.051Z,11.18
2022-10-20T20:21:12.964Z,11.19
2022-10-20T20:23:58.303Z,11.08
2022-10-20T20:26:27.475Z,11.03
2022-10-20T20:28:54.749Z,10.93
2022-10-20T20:31:21.999Z,10.96
2022-10-20T20:33:50.415Z,11.09
2022-10-20T20:36:17.703Z,11.14
2022-10-20T20:38:47.914Z,11.03
2022-10-20T20:41:17.028Z,10.67
2022-10-20T20:43:47.531Z,10.88
2022-10-20T20:46:15.264Z,10.99
2022-10-20T20:48:42.392Z,10.91
2022-10-20T20:51:09.075Z,10.77
2022-10-20T20:53:35.996Z,10.81
2022-10-20T20:56:05.691Z,10.80
2022-10-20T20:58:33.050Z,10.80
2022-10-20T21:01:07.905Z,10.73
2022-10-20T21:03:40.277Z,10.77
2022-10-20T21:06:08.298Z,10.68
2022-10-20T21:08:35.694Z,10.69
2022-10-20T21:11:06.997Z,10.55
2022-10-20T21:13:34.753Z,10.65
2022-10-20T21:16:11.091Z,10.53
2022-10-20T21:18:38.796Z,10.63
2022-10-20T21:21:06.541Z,10.43
2022-10-20T21:23:33.258Z,10.17
2022-10-20T21:26:00.260Z,10.35
2022-10-20T21:28:26.922Z,10.12
2022-10-20T21:30:55.208Z,10.19
2022-10-20T21:33:24.418Z,10.34
2022-10-20T21:35:51.162Z,10.23
2022-10-20T21:38:17.892Z,10.24
2022-10-20T21:40:44.821Z,10.20
2022-10-20T21:43:13.246Z,10.25
2022-10-20T21:45:39.917Z,10.30
2022-10-20T21:48:07.144Z,10.09
2022-10-20T21:50:35.101Z,10.01
2022-10-20T21:53:01.960Z,10.03
2022-10-20T21:55:28.905Z,9.86
2022-10-20T21:57:55.580Z,10.07
2022-10-20T22:00:23.951Z,9.96
2022-10-20T22:02:51.151Z,10.13
2022-10-20T22:05:17.926Z,10.04
2022-10-20T22:07:44.583Z,9.75
2022-10-20T22:10:11.536Z,9.93
2022-10-20T22:12:38.186Z,9.95
2022-10-20T22:15:05.007Z,10.06
2022-10-20T22:17:31.976Z,9.71
2022-10-20T22:19:58.614Z,9.77
2022-10-20T22:22:25.236Z,9.98
2022-10-20T22:24:52.159Z,9.92
2022-10-20T22:27:31.337Z,9.75
2022-10-20T22:30:06.706Z,9.97
2022-10-20T22:32:33.493Z,9.78
2022-10-20T22:35:00.233Z,9.86
2022-10-20T22:37:27.143Z,9.95
2022-10-20T22:39:53.772Z,9.83
2022-10-20T22:42:22.613Z,9.56
2022-10-20T22:44:51.786Z,9.75
2022-10-20T22:47:18.432Z,9.80
2022-10-20T22:49:45.204Z,9.67
2022-10-20T22:52:14.506Z,9.80
2022-10-20T22:54:41.223Z,9.82
2022-10-20T22:57:07.878Z,9.57
2022-10-20T22:59:34.952Z,9.68
2022-10-20T23:02:01.692Z,9.70
2022-10-20T23:04:28.404Z,9.84
2022-10-20T23:06:57.770Z,9.72
2022-10-20T23:09:24.459Z,9.73
2022-10-20T23:11:51.103Z,9.69
2022-10-20T23:14:19.185Z,9.53
2022-10-20T23:16:45.846Z,9.75
2022-10-20T23:19:12.707Z,9.81
2022-10-20T23:21:39.674Z,9.77
2022-10-20T23:24:06.471Z,9.59
2022-10-20T23:26:33.123Z,9.64
2022-10-20T23:29:00.041Z,9.57
2022-10-20T23:31:26.680Z,9.76
2022-10-20T23:33:56.184Z,9.77
2022-10-20T23:36:23.424Z,9.48
2022-10-20T23:38:50.216Z,9.52
2022-10-20T23:41:16.835Z,9.71
2022-10-20T23:43:43.784Z,9.56
2022-10-20T23:46:12.177Z,9.39
2022-10-20T23:48:38.834Z,9.46
2022-10-20T23:51:06.312Z,9.56
2022-10-20T23:53:33.080Z,9.62
2022-10-20T23:55:59.722Z,9.47
2022-10-20T23:58:26.701Z,9.64
